Nashville, Tennessee
Traffic Map
Current Weather Conditions
Nashville, Tennessee
Broken Clouds
Broken Clouds
90°
Feels Like: 91°
Wind Chill: 90° Ceiling: 25000
Heat Index: 91° Visibility: 10mi
Dew Point: 63° Wind: 9mph
Humidity: 40% Direction: 200° (SSW)
Pressure: 30.02in Gusts: 18mph
Raw Report DataKBNA 261953Z 20008G16KT 10SM SCT049 BKN250 32/17 A3002 RMK AO2 SLP159 T03220172
Traffic Incident Summary
Active as of:
Severity:
Category:
InformationThere was an issue retrieving the traffic information for this location. Please try a different location or try again shortly.
Advertisements
Track Severe Weather on mobile